Estación Meteorológica Peña el Pijo (Robertgarden) [ 11/17/17 23:58:42 CET ]

Fecha Hora Presion(HPa) Temp (°C) Humedad % Rocio (°C) Viento ( m/s) Direccion Lluvia 1Hora(mm) Lluvia 24H(mm) LLuvia Total(mm)
2017-Aug-14 01:01:48 1012.800 17.9 63 10.7         1437.96
2017-Aug-14 02:01:55 1012.600 16.3 67 10.2         1437.96
2017-Aug-14 03:01:12 1012.500 14.5 70 9.1         1437.96
2017-Aug-14 04:01:12 1012.400 13.3 74 8.7         1437.96
2017-Aug-14 05:01:10 1012.000 12.6 77 8.6         1437.96
2017-Aug-14 06:01:08 1011.900 11.9 78 8.2         1437.96
2017-Aug-14 07:01:40 1011.400 11.5 80 8.2         1437.96
2017-Aug-14 08:01:39 1011.800 11.5 81 8.4         1437.96
2017-Aug-14 09:01:55 1012.000 15.8 78 12.0         1437.96
2017-Aug-14 10:01:46 1011.900 22.3 56 13.0         1437.96
2017-Aug-14 11:02:01 1011.900 27.6 24 5.0         1437.96
2017-Aug-14 12:01:48 1011.800 29.4 25 7.1         1437.96
2017-Aug-14 13:01:45 1011.900 30.6 23 6.9 3.1 SW     1437.96
2017-Aug-14 14:01:44 1011.900 30.3 26 8.4         1437.96
2017-Aug-14 15:02:04 1011.300 31.6 28 10.7         1437.96
2017-Aug-14 16:01:43 1010.800 32.2 28 11.3         1437.96
2017-Aug-14 17:01:40 1010.500 31.1 35 13.7 2.5 S     1437.96
2017-Aug-14 18:01:37 1010.400 31.6 34 13.7         1437.96
2017-Aug-14 19:01:35 1010.300 30.6 34 12.9         1437.96
2017-Aug-14 20:01:43 1010.700 28.3 40 13.6         1437.96
2017-Aug-14 21:01:33 1011.000 25.2 46 12.7         1437.96
2017-Aug-14 22:01:39 1011.800 23.3 49 12.0         1437.96
2017-Aug-14 23:01:48 1012.500 21.4 52 11.1         1437.96

Temperatura Máxima:32°    Temperatura Mínima:11°
Presión Máxima:1012.800 Hpa    Presión Mínima:1010.300 Hpa


Volver